Terminal Aerodrome Forecast
Issued by NWS Wilmington, NC

Home | Current Version | Previous Version | Text Only | Print | Product List | Glossary On
Versions: 1 2 3 4 5 6 7 8 9 10 11 12 13 14 15 16 17 18 19 20 21 22
000
FTUS42 KILM 171205 CCA
TAFLBT
TAF COR
KLBT 171205Z 1712/1812 12004KT P6SM SCT010
      TEMPO 1712/1713 3SM BR BKN004
     FM171700 16005KT P6SM VCTS BKN030CB
     FM180200 19005KT P6SM BKN035
     FM180900 21006KT P6SM SCT003
     FM181000 22006KT P6SM BKN003=

USA.gov is the U.S. government's official web portal to all federal, state and local government web resources and services.